Time;durP1;ratioP1;P1;durP2;ratioP2;P2;SDS_P1;SDS_P2;PMS_P1;PMS_P2;Temp;Humidity;BMP_temperature;BMP_pressure;BME280_temperature;BME280_humidity;BME280_pressure;Samples;Min_cycle;Max_cycle;Signal;HPM_P1;HPM_P2
2022/09/28 00:00:32;;;;;;;8.23;4.93;;;9.00;99.90;;;;;;4985350;28;20129;-81
2022/09/28 00:02:58;;;;;;;8.18;5.80;;;9.10;99.90;;;;;;5012212;28;20088;-80
2022/09/28 00:05:27;;;;;;;11.00;5.97;;;8.90;99.90;;;;;;5010355;28;20520;-80
2022/09/28 00:07:54;;;;;;;8.85;6.28;;;8.90;99.90;;;;;;5012688;28;20162;-81
2022/09/28 00:10:23;;;;;;;7.63;5.85;;;8.90;99.90;;;;;;4980289;28;20034;-81
2022/09/28 00:12:49;;;;;;;9.88;6.45;;;8.90;99.90;;;;;;5012139;28;20124;-79
2022/09/28 00:15:16;;;;;;;9.98;6.28;;;8.90;99.90;;;;;;5012953;28;20127;-80
2022/09/28 00:17:43;;;;;;;9.30;6.47;;;8.90;99.90;;;;;;4999070;28;20073;-81
2022/09/28 00:20:10;;;;;;;10.95;6.88;;;8.90;99.90;;;;;;4996865;28;20097;-81
2022/09/28 00:22:36;;;;;;;10.70;6.55;;;8.90;99.90;;;;;;4997179;28;20474;-80
2022/09/28 00:25:03;;;;;;;10.52;7.75;;;8.90;99.90;;;;;;5031832;28;20049;-80
2022/09/28 00:27:28;;;;;;;10.20;7.30;;;8.90;99.90;;;;;;5023757;28;20490;-79
2022/09/28 00:29:55;;;;;;;10.55;7.22;;;8.90;99.90;;;;;;5001744;28;20084;-80
2022/09/28 00:32:23;;;;;;;8.90;6.13;;;9.00;99.90;;;;;;5004042;28;20042;-80
2022/09/28 00:34:50;;;;;;;11.80;6.72;;;9.00;99.90;;;;;;5022927;28;20038;-80
2022/09/28 00:37:20;;;;;;;10.38;7.43;;;9.00;99.90;;;;;;5058954;28;20040;-79
2022/09/28 00:39:47;;;;;;;11.10;7.65;;;9.00;99.90;;;;;;5014489;28;20044;-80
2022/09/28 00:42:15;;;;;;;11.05;7.90;;;9.00;99.90;;;;;;5022671;28;20061;-80
2022/09/28 00:44:42;;;;;;;9.80;7.82;;;9.50;99.90;;;;;;5047387;28;20132;-80
2022/09/28 00:47:11;;;;;;;9.38;7.45;;;9.30;99.90;;;;;;5010300;28;20387;-79
2022/09/28 00:49:46;;;;;;;11.07;7.35;;;9.00;99.90;;;;;;5013205;28;20054;-80
2022/09/28 00:52:16;;;;;;;13.60;7.85;;;9.40;99.90;;;;;;5012095;28;20482;-80
2022/09/28 00:54:43;;;;;;;11.50;7.63;;;9.00;99.90;;;;;;5012738;28;20048;-80
2022/09/28 00:57:10;;;;;;;11.40;7.85;;;9.00;99.90;;;;;;4996074;28;20072;-79
2022/09/28 00:59:35;;;;;;;10.77;7.90;;;9.00;99.90;;;;;;4996170;28;20041;-80
2022/09/28 01:02:01;;;;;;;8.90;6.45;;;9.00;99.90;;;;;;5013859;28;20080;-79
2022/09/28 01:04:28;;;;;;;9.55;7.35;;;8.90;99.90;;;;;;5012221;28;20502;-79
2022/09/28 01:06:56;;;;;;;12.32;7.95;;;9.00;99.90;;;;;;5021089;28;20154;-80
2022/09/28 01:09:23;;;;;;;9.88;7.60;;;9.00;99.90;;;;;;5010567;28;20037;-80
2022/09/28 01:11:50;;;;;;;12.52;8.57;;;8.90;99.90;;;;;;5012314;28;20041;-80
2022/09/28 01:14:16;;;;;;;10.68;8.38;;;8.90;99.90;;;;;;4994123;28;20517;-80
2022/09/28 01:16:42;;;;;;;12.15;8.35;;;9.20;99.90;;;;;;4997185;28;20046;-79
2022/09/28 01:19:26;;;;;;;10.70;8.13;;;8.90;99.90;;;;;;5001541;28;20057;-80
2022/09/28 01:22:27;;;;;;;12.70;8.75;;;8.90;99.90;;;;;;4993447;28;20410;-80
2022/09/28 01:25:10;;;;;;;12.38;8.80;;;8.90;99.90;;;;;;5011205;28;20102;-80
2022/09/28 01:27:46;;;;;;;14.63;9.18;;;8.90;99.90;;;;;;5016819;28;20053;-80
2022/09/28 01:30:16;;;;;;;12.65;8.52;;;8.90;99.90;;;;;;5002411;28;20036;-79
2022/09/28 01:33:05;;;;;;;11.63;8.68;;;8.90;99.90;;;;;;5015010;28;20057;-80
2022/09/28 01:35:36;;;;;;;13.45;9.15;;;8.90;99.90;;;;;;5014965;28;20046;-80
2022/09/28 01:38:06;;;;;;;13.73;9.35;;;8.80;99.90;;;;;;5014421;28;20065;-80
2022/09/28 01:40:34;;;;;;;13.10;9.27;;;8.80;99.90;;;;;;5013913;28;20089;-79
2022/09/28 01:43:09;;;;;;;12.30;8.70;;;9.30;99.90;;;;;;4997305;28;20127;-79
2022/09/28 01:45:42;;;;;;;12.27;8.80;;;8.80;99.90;;;;;;4996666;28;20037;-80
2022/09/28 01:48:11;;;;;;;10.68;8.98;;;8.90;99.90;;;;;;5013339;28;20042;-80
2022/09/28 01:50:39;;;;;;;13.77;9.35;;;8.80;99.90;;;;;;5008359;28;20034;-79
2022/09/28 01:53:15;;;;;;;11.95;9.57;;;9.00;99.90;;;;;;5014420;28;20042;-80
2022/09/28 01:55:45;;;;;;;10.70;7.55;;;8.80;99.90;;;;;;5009682;28;20561;-79
2022/09/28 01:58:29;;;;;;;13.35;8.60;;;9.20;99.90;;;;;;5045436;28;20414;-79
2022/09/28 02:01:11;;;;;;;13.57;10.63;;;8.90;99.90;;;;;;4993886;28;20049;-80
2022/09/28 02:04:00;;;;;;;14.43;9.48;;;8.80;99.90;;;;;;5009787;28;20045;-79
2022/09/28 02:06:33;;;;;;;13.38;9.40;;;8.80;99.90;;;;;;4992711;28;20373;-80
2022/09/28 02:09:07;;;;;;;8.75;7.63;;;8.50;99.90;;;;;;4994240;28;20132;-79
2022/09/28 02:11:36;;;;;;;10.55;8.35;;;8.70;99.90;;;;;;5025743;28;20082;-80
2022/09/28 02:14:08;;;;;;;13.65;9.57;;;8.70;99.90;;;;;;5011289;28;20042;-80
2022/09/28 02:16:49;;;;;;;11.68;9.30;;;8.80;99.90;;;;;;4989221;28;20046;-80
2022/09/28 02:19:22;;;;;;;10.05;8.52;;;8.80;99.90;;;;;;5006730;28;20045;-80
2022/09/28 02:21:58;;;;;;;13.10;9.80;;;8.80;99.90;;;;;;5011028;28;20069;-81
2022/09/28 02:24:35;;;;;;;14.30;9.07;;;8.80;99.90;;;;;;5009893;28;20037;-80
2022/09/28 02:27:14;;;;;;;12.18;9.35;;;8.80;99.90;;;;;;5006690;28;20041;-81
2022/09/28 02:29:40;;;;;;;14.95;9.15;;;8.80;99.90;;;;;;5008071;28;20038;-81
2022/09/28 02:32:06;;;;;;;12.85;9.43;;;8.80;99.90;;;;;;4992603;28;20113;-81
2022/09/28 02:34:32;;;;;;;12.52;9.52;;;8.80;99.90;;;;;;4986402;28;20041;-80
2022/09/28 02:36:58;;;;;;;14.00;9.40;;;8.80;99.90;;;;;;4993295;28;20046;-79
2022/09/28 02:39:25;;;;;;;11.20;9.25;;;9.30;99.90;;;;;;5022907;28;20053;-80
2022/09/28 02:42:09;;;;;;;13.63;9.15;;;8.80;99.90;;;;;;5032924;28;20387;-80
2022/09/28 02:44:50;;;;;;;9.77;7.80;;;8.80;99.90;;;;;;4986279;28;20053;-80
2022/09/28 02:47:28;;;;;;;13.38;9.00;;;8.80;99.90;;;;;;5006545;28;20133;-80
2022/09/28 02:50:38;;;;;;;13.07;9.27;;;8.70;99.90;;;;;;5015029;28;20046;-80
2022/09/28 02:53:10;;;;;;;16.05;9.27;;;8.80;99.90;;;;;;4934563;29;20045;-80
2022/09/28 02:56:10;;;;;;;12.48;8.55;;;8.80;99.90;;;;;;4989926;28;20053;-81
2022/09/28 02:58:46;;;;;;;13.32;9.80;;;8.80;99.90;;;;;;5004247;28;20104;-80
2022/09/28 03:01:34;;;;;;;17.00;10.43;;;8.80;99.90;;;;;;5008857;28;20049;-80
2022/09/28 03:04:19;;;;;;;10.90;8.73;;;8.80;99.90;;;;;;5001786;28;20136;-80
2022/09/28 03:06:53;;;;;;;11.57;9.30;;;8.80;99.90;;;;;;4993376;28;20144;-80
2022/09/28 03:09:21;;;;;;;15.23;10.10;;;9.40;99.90;;;;;;5005696;28;20124;-79
2022/09/28 03:11:55;;;;;;;11.10;9.05;;;9.40;99.90;;;;;;5007302;28;20034;-80
2022/09/28 03:14:21;;;;;;;9.57;7.15;;;8.90;99.90;;;;;;5006591;28;20041;-80
2022/09/28 03:16:47;;;;;;;10.70;9.10;;;9.00;99.90;;;;;;4994215;28;20049;-80
2022/09/28 03:19:15;;;;;;;9.80;7.82;;;8.90;99.90;;;;;;5009324;28;20544;-80
2022/09/28 03:21:41;;;;;;;7.55;6.43;;;9.40;99.90;;;;;;5020824;28;20352;-81
2022/09/28 03:24:09;;;;;;;11.10;8.68;;;9.40;99.90;;;;;;4994620;28;20117;-80
2022/09/28 03:26:38;;;;;;;10.77;8.93;;;8.90;99.90;;;;;;4994046;28;20034;-80
2022/09/28 03:29:04;;;;;;;10.15;8.93;;;9.20;99.90;;;;;;5008744;28;20053;-80
2022/09/28 03:31:30;;;;;;;12.40;7.80;;;8.90;99.90;;;;;;4994982;28;20037;-80
2022/09/28 03:33:56;;;;;;;11.15;9.05;;;8.90;99.90;;;;;;5013669;28;20034;-80
2022/09/28 03:36:22;;;;;;;9.57;7.60;;;8.90;99.90;;;;;;4994018;28;20502;-80
2022/09/28 03:38:47;;;;;;;12.00;9.32;;;8.90;99.90;;;;;;5008983;28;20461;-81
2022/09/28 03:41:13;;;;;;;10.85;8.32;;;9.10;99.90;;;;;;5010940;28;20042;-79
2022/09/28 03:43:39;;;;;;;8.25;6.95;;;8.90;99.90;;;;;;4995932;28;20041;-80
2022/09/28 03:46:05;;;;;;;12.32;9.05;;;9.10;99.90;;;;;;4993766;28;20116;-80
2022/09/28 03:48:33;;;;;;;11.90;8.73;;;9.20;99.90;;;;;;5010630;28;20034;-79
2022/09/28 03:51:01;;;;;;;11.10;8.52;;;9.30;99.90;;;;;;5010544;28;20441;-80
2022/09/28 03:53:28;;;;;;;10.80;9.02;;;9.00;99.90;;;;;;4980513;28;20557;-79
2022/09/28 03:55:55;;;;;;;9.32;7.85;;;9.00;99.90;;;;;;5042696;28;20702;-79
2022/09/28 03:58:21;;;;;;;9.82;8.25;;;9.00;99.90;;;;;;5010303;28;20107;-79
2022/09/28 04:00:48;;;;;;;10.48;8.30;;;9.00;99.90;;;;;;5010339;28;20100;-80
2022/09/28 04:03:14;;;;;;;10.50;8.50;;;9.00;99.90;;;;;;5013584;28;20045;-79
2022/09/28 04:05:51;;;;;;;10.00;8.25;;;9.70;99.90;;;;;;5047734;28;20038;-80
2022/09/28 04:08:16;;;;;;;13.45;9.68;;;9.00;99.90;;;;;;5015565;28;20498;-80
2022/09/28 04:10:42;;;;;;;9.77;8.15;;;9.00;99.90;;;;;;5015804;28;20041;-80
2022/09/28 04:13:08;;;;;;;11.23;8.38;;;9.10;99.90;;;;;;4981374;28;20038;-80
2022/09/28 04:15:34;;;;;;;10.75;8.25;;;9.00;99.90;;;;;;5046901;28;20049;-80
2022/09/28 04:17:59;;;;;;;11.25;8.00;;;9.10;99.90;;;;;;5018915;28;20084;-80
2022/09/28 04:20:25;;;;;;;11.38;8.98;;;9.20;99.90;;;;;;5036482;28;20071;-80
2022/09/28 04:22:51;;;;;;;11.73;7.93;;;9.10;99.90;;;;;;5004870;28;20042;-80
2022/09/28 04:25:16;;;;;;;13.35;8.85;;;9.10;99.90;;;;;;5031801;28;20494;-80
2022/09/28 04:30:26;;;;;;;9.75;7.57;;;9.10;99.90;;;;;;5026078;28;20108;-80
2022/09/28 04:32:52;;;;;;;10.32;7.90;;;9.00;99.90;;;;;;4995802;28;20034;-80
2022/09/28 04:35:18;;;;;;;9.65;7.40;;;9.00;99.90;;;;;;5012338;28;20041;-80
2022/09/28 04:37:43;;;;;;;10.95;8.07;;;9.10;99.90;;;;;;5012583;28;20038;-80
2022/09/28 04:40:09;;;;;;;8.25;6.88;;;9.10;99.90;;;;;;4996812;28;20092;-80
2022/09/28 04:42:35;;;;;;;11.55;8.05;;;9.10;99.90;;;;;;4997550;28;20045;-80
2022/09/28 04:45:03;;;;;;;12.23;9.02;;;9.10;99.90;;;;;;4963296;28;20042;-79
2022/09/28 04:47:29;;;;;;;10.95;8.13;;;9.50;99.90;;;;;;4972401;28;20038;-80
2022/09/28 04:49:55;;;;;;;12.30;9.02;;;9.10;99.90;;;;;;5013709;28;20038;-80
2022/09/28 04:52:21;;;;;;;10.43;7.50;;;9.70;99.90;;;;;;4985588;28;20104;-81
2022/09/28 04:54:46;;;;;;;10.55;8.60;;;9.10;99.90;;;;;;5029188;28;20042;-80
2022/09/28 04:57:12;;;;;;;11.10;7.70;;;9.10;99.90;;;;;;4997549;28;20042;-79
2022/09/28 04:59:38;;;;;;;13.00;10.10;;;9.10;99.90;;;;;;5014302;28;20034;-80
2022/09/28 05:02:04;;;;;;;10.68;8.23;;;9.20;99.90;;;;;;4997283;28;20461;-80
2022/09/28 05:04:30;;;;;;;11.40;9.63;;;9.10;99.90;;;;;;5030244;28;20088;-79
2022/09/28 05:06:56;;;;;;;12.18;8.15;;;9.00;99.90;;;;;;4998675;28;20030;-80
2022/09/28 05:09:22;;;;;;;13.98;8.80;;;9.00;99.90;;;;;;5032253;28;20049;-80
2022/09/28 05:11:51;;;;;;;11.13;8.52;;;9.00;99.90;;;;;;5047519;28;20034;-79
2022/09/28 05:14:20;;;;;;;11.80;8.73;;;9.00;99.90;;;;;;5012656;28;20033;-80
2022/09/28 05:16:47;;;;;;;13.68;9.57;;;8.90;99.90;;;;;;4996878;28;20042;-80
2022/09/28 05:19:13;;;;;;;14.68;9.27;;;9.20;99.90;;;;;;5012671;28;20042;-80
2022/09/28 05:21:43;;;;;;;12.35;9.15;;;8.80;99.90;;;;;;5015269;28;20053;-79
2022/09/28 05:24:10;;;;;;;11.70;7.78;;;8.80;99.90;;;;;;5029784;28;20041;-79
2022/09/28 05:26:36;;;;;;;10.55;8.23;;;9.50;99.90;;;;;;5011912;28;20540;-79
2022/09/28 05:29:01;;;;;;;11.18;8.55;;;8.70;99.90;;;;;;5030221;28;20038;-79
2022/09/28 05:31:27;;;;;;;13.13;9.35;;;8.70;99.90;;;;;;5011016;28;20034;-80
2022/09/28 05:33:53;;;;;;;17.30;8.55;;;9.40;99.90;;;;;;4996029;28;20514;-80
2022/09/28 05:36:19;;;;;;;13.27;8.77;;;8.70;99.90;;;;;;5028673;28;20167;-80
2022/09/28 05:38:45;;;;;;;11.00;8.60;;;8.60;99.90;;;;;;5013699;28;20046;-80
2022/09/28 05:41:11;;;;;;;12.00;9.80;;;8.60;99.90;;;;;;5029510;28;20052;-80
2022/09/28 05:43:37;;;;;;;15.00;9.45;;;8.50;99.90;;;;;;5028652;28;20065;-80
2022/09/28 05:46:03;;;;;;;11.23;8.07;;;9.10;99.90;;;;;;5030964;28;20066;-79
2022/09/28 05:48:29;;;;;;;9.07;6.88;;;8.50;99.90;;;;;;4963668;28;20046;-80
2022/09/28 05:50:57;;;;;;;9.95;8.05;;;8.40;99.90;;;;;;5015514;28;20041;-79
2022/09/28 05:53:23;;;;;;;10.20;7.65;;;8.50;99.90;;;;;;5011862;28;20117;-81
2022/09/28 05:55:49;;;;;;;10.50;6.95;;;8.50;99.90;;;;;;5012976;28;20041;-80
2022/09/28 05:58:15;;;;;;;14.02;8.38;;;8.40;99.90;;;;;;5014104;28;20407;-79
2022/09/28 06:00:41;;;;;;;10.32;7.55;;;8.40;99.90;;;;;;5013654;28;20105;-80
2022/09/28 06:03:10;;;;;;;9.65;7.25;;;8.30;99.90;;;;;;5030753;28;20038;-80
2022/09/28 06:05:38;;;;;;;11.07;7.63;;;8.30;99.90;;;;;;5013352;28;20076;-80
2022/09/28 06:08:05;;;;;;;9.20;7.70;;;8.30;99.90;;;;;;5016887;28;20457;-80
2022/09/28 06:10:32;;;;;;;8.57;7.07;;;8.30;99.90;;;;;;5045184;28;20037;-79
2022/09/28 06:12:58;;;;;;;11.57;8.18;;;8.30;99.90;;;;;;4999077;28;20038;-80
2022/09/28 06:15:27;;;;;;;8.35;6.97;;;8.20;99.90;;;;;;5027015;28;20730;-79
2022/09/28 06:17:57;;;;;;;10.90;7.25;;;8.50;99.90;;;;;;4998991;28;20061;-80
2022/09/28 06:20:25;;;;;;;10.80;7.55;;;8.70;99.90;;;;;;5014932;28;20042;-80
2022/09/28 06:22:52;;;;;;;10.65;6.95;;;8.30;99.90;;;;;;4996630;28;20057;-79
2022/09/28 06:25:18;;;;;;;10.55;7.65;;;8.30;99.90;;;;;;5012895;28;20037;-79
2022/09/28 06:28:02;;;;;;;9.77;7.65;;;8.20;99.90;;;;;;5030379;28;20084;-79
2022/09/28 06:30:31;;;;;;;10.00;7.75;;;8.30;99.90;;;;;;5046898;28;20442;-80
2022/09/28 06:32:58;;;;;;;11.73;8.60;;;8.30;99.90;;;;;;5049059;28;20038;-79
2022/09/28 06:35:25;;;;;;;13.55;9.30;;;8.30;99.90;;;;;;5011807;28;20449;-79
2022/09/28 06:37:52;;;;;;;10.52;8.43;;;8.50;99.90;;;;;;5010923;28;20045;-79
2022/09/28 06:40:19;;;;;;;10.18;8.52;;;9.40;99.90;;;;;;5047453;28;20674;-79
2022/09/28 06:42:57;;;;;;;11.65;9.30;;;9.10;99.90;;;;;;5016137;28;20053;-79
2022/09/28 06:45:25;;;;;;;12.40;8.43;;;9.20;99.90;;;;;;5040738;28;20113;-79
2022/09/28 06:47:58;;;;;;;12.30;8.13;;;9.30;99.90;;;;;;4999972;28;20065;-79
2022/09/28 06:50:25;;;;;;;11.48;8.25;;;9.40;99.90;;;;;;4979818;28;20042;-80
2022/09/28 06:52:53;;;;;;;11.25;8.50;;;9.40;99.90;;;;;;4995892;28;20397;-79
2022/09/28 06:55:19;;;;;;;9.00;7.68;;;9.50;99.90;;;;;;5015702;28;20053;-80
2022/09/28 06:57:45;;;;;;;9.90;7.57;;;9.70;99.90;;;;;;5025508;28;20057;-79
2022/09/28 07:00:12;;;;;;;10.50;7.95;;;10.30;99.90;;;;;;5017771;28;20050;-79
2022/09/28 07:02:38;;;;;;;10.13;8.02;;;9.70;99.90;;;;;;5005446;28;20280;-80
2022/09/28 07:05:07;;;;;;;9.18;7.60;;;9.80;99.90;;;;;;5007723;28;20077;-80
2022/09/28 07:07:33;;;;;;;10.27;7.65;;;9.90;99.90;;;;;;4989476;28;20042;-81
2022/09/28 07:09:58;;;;;;;8.73;6.38;;;10.00;99.90;;;;;;4988723;28;20494;-80
2022/09/28 07:12:24;;;;;;;6.10;5.10;;;10.10;99.90;;;;;;4988094;28;20406;-79
2022/09/28 07:14:56;;;;;;;7.28;5.60;;;10.20;99.90;;;;;;5011891;28;20044;-80
2022/09/28 07:17:22;;;;;;;9.43;6.35;;;10.30;99.90;;;;;;4988854;28;20049;-81
2022/09/28 07:19:51;;;;;;;9.23;6.03;;;10.40;99.90;;;;;;5005243;28;20467;-81
2022/09/28 07:22:18;;;;;;;6.57;5.50;;;10.50;99.90;;;;;;5006777;28;20275;-81
2022/09/28 07:24:44;;;;;;;6.28;5.07;;;10.50;99.90;;;;;;5007293;28;20044;-80
2022/09/28 07:27:10;;;;;;;6.10;4.95;;;11.00;99.90;;;;;;5005748;28;20042;-80
2022/09/28 07:29:35;;;;;;;8.57;5.43;;;10.60;99.90;;;;;;5004225;28;20041;-80
2022/09/28 07:32:02;;;;;;;7.63;4.25;;;10.60;99.90;;;;;;4985032;28;20033;-80
2022/09/28 07:34:27;;;;;;;7.50;5.22;;;10.70;99.90;;;;;;5008185;28;20116;-80
2022/09/28 07:36:56;;;;;;;6.00;4.35;;;10.70;99.90;;;;;;4992903;28;20161;-80
2022/09/28 07:39:22;;;;;;;6.65;5.15;;;10.80;99.90;;;;;;4995543;28;20038;-80
2022/09/28 07:41:48;;;;;;;8.98;4.68;;;10.90;99.90;;;;;;4997518;28;20521;-81
2022/09/28 07:44:14;;;;;;;5.05;4.20;;;10.90;99.90;;;;;;5014499;28;20048;-81
2022/09/28 07:46:42;;;;;;;9.05;5.00;;;11.00;99.90;;;;;;5017903;28;20064;-81
2022/09/28 07:49:07;;;;;;;6.32;4.60;;;11.10;99.90;;;;;;5014187;28;20042;-81
2022/09/28 07:51:33;;;;;;;8.50;4.60;;;11.20;99.90;;;;;;5017748;28;20033;-81
2022/09/28 07:53:59;;;;;;;8.25;4.47;;;11.30;99.90;;;;;;5008367;28;20474;-80
2022/09/28 07:56:25;;;;;;;6.68;4.72;;;11.30;99.90;;;;;;4998564;28;20042;-81
2022/09/28 07:58:51;;;;;;;8.38;4.25;;;11.40;99.90;;;;;;4998176;28;20526;-81
2022/09/28 08:01:17;;;;;;;6.13;4.75;;;11.50;99.90;;;;;;5012997;28;20073;-82
2022/09/28 08:03:45;;;;;;;6.70;4.63;;;11.60;99.90;;;;;;5014229;28;20050;-80
2022/09/28 08:06:13;;;;;;;11.60;4.88;;;11.80;99.90;;;;;;5012691;28;20119;-81
2022/09/28 08:08:42;;;;;;;5.70;3.53;;;12.00;99.90;;;;;;5015117;28;20042;-81
2022/09/28 08:11:13;;;;;;;10.02;3.95;;;12.00;99.90;;;;;;4997312;28;20030;-81
2022/09/28 08:13:39;;;;;;;5.30;3.35;;;12.10;99.90;;;;;;5004096;28;20129;-81
2022/09/28 08:16:10;;;;;;;7.07;3.92;;;12.10;99.90;;;;;;5012069;28;20424;-81
2022/09/28 08:18:35;;;;;;;4.38;3.05;;;12.10;99.90;;;;;;5005954;28;20103;-80
2022/09/28 08:23:48;;;;;;;6.80;3.05;;;12.30;99.90;;;;;;5028711;28;20333;-81
2022/09/28 08:26:13;;;;;;;3.97;2.60;;;12.50;99.90;;;;;;5014606;28;20117;-81
2022/09/28 08:28:39;;;;;;;5.05;2.50;;;12.30;99.90;;;;;;5011107;28;20046;-80
2022/09/28 08:31:06;;;;;;;5.55;2.30;;;12.30;99.90;;;;;;4976557;28;20038;-81
2022/09/28 08:33:33;;;;;;;3.65;1.83;;;12.50;99.90;;;;;;4997869;28;20030;-81
2022/09/28 08:36:00;;;;;;;4.07;1.90;;;12.60;99.90;;;;;;4992921;28;20480;-81
2022/09/28 08:38:28;;;;;;;5.00;1.85;;;12.60;99.90;;;;;;5026496;28;20125;-80
2022/09/28 08:41:12;;;;;;;6.80;1.88;;;12.60;99.90;;;;;;4993507;28;20057;-81
2022/09/28 08:43:51;;;;;;;3.60;1.80;;;12.60;99.90;;;;;;5016328;28;20095;-81
2022/09/28 08:46:22;;;;;;;3.45;1.90;;;12.70;99.90;;;;;;5012121;28;20101;-79
2022/09/28 08:48:55;;;;;;;3.47;1.60;;;12.60;99.90;;;;;;5012496;28;20037;-79
2022/09/28 08:51:36;;;;;;;3.25;2.13;;;12.70;99.90;;;;;;5014806;28;20068;-78
2022/09/28 08:54:12;;;;;;;4.40;1.48;;;12.90;99.90;;;;;;5039384;28;20119;-79
2022/09/28 08:56:53;;;;;;;6.38;2.33;;;13.10;99.90;;;;;;4995287;28;20517;-79
2022/09/28 08:59:23;;;;;;;2.28;0.90;;;13.20;99.90;;;;;;5013023;28;20048;-78
2022/09/28 09:02:02;;;;;;;2.35;0.70;;;13.40;99.90;;;;;;5009555;28;20057;-79
2022/09/28 09:04:28;;;;;;;2.13;0.90;;;13.30;99.90;;;;;;5008560;28;20050;-82
2022/09/28 09:07:17;;;;;;;1.95;0.70;;;13.40;99.90;;;;;;5006919;28;20098;-79
2022/09/28 09:10:09;;;;;;;2.20;0.80;;;13.40;99.90;;;;;;5005118;28;20049;-80
2022/09/28 09:12:57;;;;;;;4.47;0.70;;;13.50;99.90;;;;;;5008626;28;20041;-80
2022/09/28 09:15:51;;;;;;;3.47;0.70;;;13.60;99.90;;;;;;4991216;28;20081;-81
2022/09/28 09:18:41;;;;;;;0.97;0.67;;;13.70;99.90;;;;;;5009329;28;20054;-80
2022/09/28 09:21:28;;;;;;;1.92;0.93;;;13.80;99.90;;;;;;5011571;28;20552;-81
2022/09/28 09:24:13;;;;;;;2.13;0.90;;;13.60;99.90;;;;;;5012701;28;20038;-81
2022/09/28 09:26:40;;;;;;;1.70;0.95;;;13.50;99.90;;;;;;5006636;28;20558;-80
2022/09/28 09:29:28;;;;;;;1.10;0.60;;;13.70;99.90;;;;;;4996023;28;20057;-80
2022/09/28 09:32:03;;;;;;;1.08;0.77;;;14.00;99.90;;;;;;4996099;28;20034;-80
2022/09/28 09:34:47;;;;;;;2.35;0.55;;;14.00;99.90;;;;;;5006654;28;20096;-79
2022/09/28 09:37:47;;;;;;;1.42;0.80;;;14.10;99.90;;;;;;5012138;28;20268;-79
2022/09/28 09:40:40;;;;;;;1.42;0.60;;;14.20;99.90;;;;;;5007946;28;20038;-80
2022/09/28 09:43:37;;;;;;;3.97;1.42;;;14.50;99.90;;;;;;5011635;28;20072;-80
2022/09/28 09:46:12;;;;;;;2.60;0.60;;;14.70;99.90;;;;;;5008259;28;20145;-79
2022/09/28 09:48:55;;;;;;;3.28;0.70;;;14.90;99.90;;;;;;5011915;28;20045;-79
2022/09/28 09:51:22;;;;;;;3.80;0.82;;;15.20;99.90;;;;;;5008714;28;20129;-79
2022/09/28 09:54:14;;;;;;;1.58;0.60;;;15.00;99.90;;;;;;5008663;28;20049;-78
2022/09/28 09:56:58;;;;;;;0.65;0.50;;;14.90;99.90;;;;;;4995502;28;20033;-77
2022/09/28 09:59:32;;;;;;;1.70;0.70;;;14.70;99.90;;;;;;4981280;28;20755;-79
2022/09/28 10:02:01;;;;;;;0.73;0.40;;;14.50;99.90;;;;;;4994855;28;20128;-79
2022/09/28 10:04:36;;;;;;;0.70;0.32;;;14.60;99.90;;;;;;4993154;28;20049;-78
2022/09/28 10:07:08;;;;;;;2.17;0.50;;;14.60;99.90;;;;;;4995772;28;20049;-79
2022/09/28 10:09:40;;;;;;;3.15;0.52;;;14.70;99.90;;;;;;5010435;28;20050;-79
2022/09/28 10:12:10;;;;;;;1.80;0.30;;;14.60;99.90;;;;;;4999737;28;20053;-79
2022/09/28 10:14:36;;;;;;;1.65;0.50;;;14.30;99.90;;;;;;4992251;28;20042;-79
2022/09/28 10:17:02;;;;;;;1.13;0.40;;;14.30;99.90;;;;;;4978878;28;20426;-79
2022/09/28 10:19:31;;;;;;;0.88;0.40;;;14.30;99.90;;;;;;4977226;28;20052;-79
2022/09/28 10:22:01;;;;;;;1.38;0.60;;;14.40;99.90;;;;;;5000066;28;20671;-79
2022/09/28 10:24:34;;;;;;;1.83;0.60;;;14.30;99.90;;;;;;4992254;28;20064;-79
2022/09/28 10:27:26;;;;;;;2.78;0.63;;;14.20;99.90;;;;;;4994840;28;20149;-79
2022/09/28 10:30:01;;;;;;;2.03;0.40;;;14.10;99.90;;;;;;5014038;28;20128;-79
2022/09/28 10:32:37;;;;;;;1.45;0.20;;;14.10;99.90;;;;;;4980501;28;20042;-79
2022/09/28 10:35:18;;;;;;;1.30;0.40;;;14.20;99.90;;;;;;4985593;28;20049;-79
2022/09/28 10:37:58;;;;;;;0.85;0.30;;;14.30;99.90;;;;;;4994892;28;20058;-79
2022/09/28 10:40:43;;;;;;;0.70;0.32;;;14.30;99.90;;;;;;4983218;28;20046;-79
2022/09/28 10:43:34;;;;;;;0.77;0.20;;;14.30;99.90;;;;;;4995213;28;20052;-79
2022/09/28 10:46:05;;;;;;;2.17;0.32;;;14.30;99.90;;;;;;4993898;28;20034;-79
2022/09/28 10:49:00;;;;;;;2.47;0.25;;;14.40;99.90;;;;;;4997222;28;20046;-79
2022/09/28 10:51:48;;;;;;;1.70;0.35;;;14.30;99.90;;;;;;5013064;28;20046;-79
2022/09/28 10:54:29;;;;;;;1.55;0.50;;;14.30;99.90;;;;;;5013837;28;20038;-79
2022/09/28 10:56:56;;;;;;;3.45;0.80;;;14.30;99.90;;;;;;4977644;28;20680;-79
2022/09/28 10:59:28;;;;;;;3.35;0.60;;;14.20;99.90;;;;;;4958943;28;20125;-79
2022/09/28 11:02:01;;;;;;;4.97;0.80;;;13.90;99.90;;;;;;5008938;28;20037;-79
2022/09/28 11:04:29;;;;;;;3.13;0.80;;;13.70;99.90;;;;;;4993057;28;20053;-78
2022/09/28 11:06:57;;;;;;;1.40;0.35;;;13.60;99.90;;;;;;4974669;28;20037;-79
2022/09/28 11:09:39;;;;;;;1.33;0.55;;;13.60;99.90;;;;;;4974906;28;20037;-80
2022/09/28 11:12:06;;;;;;;2.40;0.65;;;13.60;99.90;;;;;;4990698;28;20314;-79
2022/09/28 11:14:37;;;;;;;2.25;0.40;;;13.60;99.90;;;;;;4992902;28;20045;-80
2022/09/28 11:17:32;;;;;;;2.50;0.50;;;13.60;99.90;;;;;;4975250;28;20479;-80
2022/09/28 11:20:00;;;;;;;2.22;0.30;;;13.60;99.90;;;;;;4991067;28;20072;-79
2022/09/28 11:22:32;;;;;;;0.80;0.40;;;13.60;99.90;;;;;;4997198;28;20045;-79
2022/09/28 11:25:20;;;;;;;1.60;0.40;;;13.60;99.90;;;;;;4992969;28;20053;-79
2022/09/28 11:27:52;;;;;;;1.52;0.30;;;13.70;99.90;;;;;;4991310;28;20570;-79
2022/09/28 11:30:41;;;;;;;2.03;0.30;;;13.80;99.90;;;;;;4988376;28;20613;-79
2022/09/28 11:33:18;;;;;;;2.33;0.75;;;13.90;99.90;;;;;;4991197;28;22084;-80
2022/09/28 11:36:06;;;;;;;0.77;0.40;;;13.80;99.90;;;;;;4989940;28;20031;-80
2022/09/28 11:38:38;;;;;;;3.97;0.70;;;13.80;99.90;;;;;;4989534;28;20326;-79
2022/09/28 11:41:35;;;;;;;1.73;0.85;;;13.70;99.90;;;;;;4991392;28;20046;-79
2022/09/28 11:44:10;;;;;;;2.55;0.90;;;13.70;99.90;;;;;;4988590;28;20038;-79
2022/09/28 11:47:06;;;;;;;3.30;1.23;;;13.60;99.90;;;;;;4993782;28;20052;-80
2022/09/28 11:49:51;;;;;;;5.95;2.08;;;13.60;99.90;;;;;;5003836;28;20046;-80
2022/09/28 11:52:51;;;;;;;4.32;1.63;;;13.60;99.90;;;;;;4990362;28;20033;-80
2022/09/28 11:55:20;;;;;;;5.20;1.90;;;13.70;99.90;;;;;;5001023;28;20507;-80
2022/09/28 11:57:59;;;;;;;2.55;1.20;;;14.00;99.90;;;;;;4996129;28;20033;-81
2022/09/28 12:00:26;;;;;;;1.33;0.60;;;14.30;99.90;;;;;;4989169;28;20529;-81
2022/09/28 12:03:14;;;;;;;1.23;0.50;;;14.50;99.90;;;;;;5019641;28;20041;-81
2022/09/28 12:06:01;;;;;;;1.38;0.38;;;14.60;99.90;;;;;;5003497;28;20104;-81
2022/09/28 12:08:31;;;;;;;1.15;0.40;;;14.70;99.90;;;;;;5021221;28;20461;-81
2022/09/28 12:11:00;;;;;;;0.85;0.38;;;15.00;99.90;;;;;;5006159;28;20116;-80
2022/09/28 12:13:32;;;;;;;1.70;0.47;;;15.40;99.90;;;;;;5025116;28;20525;-82
2022/09/28 12:16:02;;;;;;;1.60;0.55;;;15.70;99.90;;;;;;4991034;28;20041;-81
2022/09/28 12:18:34;;;;;;;1.75;0.30;;;16.10;99.90;;;;;;5028207;28;20247;-80
2022/09/28 12:21:29;;;;;;;2.30;0.63;;;16.40;99.90;;;;;;5001844;28;20183;-80
2022/09/28 12:24:00;;;;;;;0.93;0.30;;;16.40;99.90;;;;;;5009884;28;20046;-81
2022/09/28 12:27:10;;;;;;;0.63;0.30;;;16.60;99.90;;;;;;5009941;28;20049;-79
2022/09/28 12:29:46;;;;;;;0.88;0.40;;;16.90;99.90;;;;;;5009163;28;20053;-80
2022/09/28 12:32:28;;;;;;;0.43;0.30;;;17.20;99.90;;;;;;5015704;28;20045;-81
2022/09/28 12:34:55;;;;;;;0.30;0.30;;;17.50;99.90;;;;;;5010474;28;20034;-81
2022/09/28 12:37:26;;;;;;;0.32;0.17;;;17.60;99.90;;;;;;5009138;28;20050;-81
2022/09/28 12:40:11;;;;;;;1.60;0.30;;;17.60;99.80;;;;;;5011641;28;20495;-81
2022/09/28 12:43:05;;;;;;;0.80;0.45;;;17.80;99.60;;;;;;4996382;28;20117;-82
2022/09/28 12:45:49;;;;;;;1.40;0.32;;;17.70;94.80;;;;;;5014394;28;20046;-81
2022/09/28 12:48:15;;;;;;;2.90;0.38;;;17.60;97.20;;;;;;5008969;28;20129;-82
2022/09/28 12:51:14;;;;;;;1.30;0.20;;;17.60;97.70;;;;;;5027263;28;20109;-81
2022/09/28 12:54:05;;;;;;;2.33;0.95;;;17.90;97.70;;;;;;5011881;28;20073;-82
2022/09/28 12:56:43;;;;;;;2.05;0.55;;;18.20;98.00;;;;;;5002980;28;20486;-81
2022/09/28 12:59:33;;;;;;;1.85;0.50;;;18.00;98.30;;;;;;5108787;22;20064;-62
2022/09/28 13:02:32;;;;;;;0.55;0.30;;;17.70;98.90;;;;;;5043860;28;20099;-63
2022/09/28 13:05:12;;;;;;;0.60;0.40;;;17.20;98.30;;;;;;5038577;28;20033;-63
2022/09/28 13:07:52;;;;;;;1.10;0.30;;;16.80;98.20;;;;;;5043298;28;20045;-62
2022/09/28 13:10:38;;;;;;;1.10;0.30;;;16.40;98.40;;;;;;5042227;28;20029;-63
2022/09/28 13:13:16;;;;;;;0.85;0.30;;;16.20;99.10;;;;;;5040325;28;20588;-63
2022/09/28 13:16:03;;;;;;;2.58;0.70;;;16.00;99.50;;;;;;5039616;28;20087;-63
2022/09/28 13:18:35;;;;;;;1.50;0.40;;;15.90;99.40;;;;;;5042461;28;20076;-62
2022/09/28 13:21:22;;;;;;;0.55;0.30;;;15.70;99.70;;;;;;5039029;28;20033;-63